createdAt,value
2019-01-27T00:00:54.500Z,98.97
2019-01-27T00:01:54.488Z,99.49
2019-01-27T00:02:54.471Z,99.3
2019-01-27T00:03:54.459Z,99.3
2019-01-27T00:04:54.446Z,99.3
2019-01-27T00:05:54.432Z,99.02
2019-01-27T00:06:54.422Z,99.11
2019-01-27T00:07:54.408Z,99.06
2019-01-27T00:08:54.395Z,98.73
2019-01-27T00:09:54.384Z,99.02
2019-01-27T00:10:54.405Z,99.3
2019-01-27T00:11:54.357Z,99.02
2019-01-27T00:12:54.340Z,99.3
2019-01-27T00:13:54.327Z,99.4
2019-01-27T00:14:54.312Z,99.3
2019-01-27T00:15:54.300Z,98.97
2019-01-27T00:16:54.286Z,99.06
2019-01-27T00:17:54.273Z,99.3
2019-01-27T00:18:54.262Z,99.02
2019-01-27T00:19:54.247Z,99.26
2019-01-27T00:20:54.234Z,99.11
2019-01-27T00:21:54.219Z,99.26
2019-01-27T00:22:54.207Z,99.06
2019-01-27T00:23:54.195Z,99.06
2019-01-27T00:24:54.179Z,99.26
2019-01-27T00:25:54.181Z,99.06
2019-01-27T00:26:54.153Z,99.35
2019-01-27T00:27:54.139Z,99.16
2019-01-27T00:28:54.128Z,99.26
2019-01-27T00:29:54.113Z,99.26
2019-01-27T00:30:54.100Z,98.97
2019-01-27T00:31:54.125Z,99.54
2019-01-27T00:32:54.079Z,99.26
2019-01-27T00:33:54.062Z,99.06
2019-01-27T00:34:54.053Z,99.26
2019-01-27T00:35:54.033Z,99.26
2019-01-27T00:36:54.017Z,99.26
2019-01-27T00:37:54.005Z,99.06
2019-01-27T00:38:53.993Z,98.97
2019-01-27T00:39:53.979Z,99.26
2019-01-27T00:40:53.966Z,99.26
2019-01-27T00:41:53.958Z,99.06
2019-01-27T00:42:53.942Z,99.26
2019-01-27T00:43:53.924Z,98.97
2019-01-27T00:44:53.910Z,99.26
2019-01-27T00:45:53.898Z,99.26
2019-01-27T00:46:53.883Z,99.26
2019-01-27T00:47:53.871Z,99.26
2019-01-27T00:48:53.859Z,99.16
2019-01-27T00:49:53.842Z,99.16
2019-01-27T00:50:53.830Z,98.97
2019-01-27T00:51:53.816Z,99.06
2019-01-27T00:52:53.803Z,99.11
2019-01-27T00:53:53.798Z,99.16
2019-01-27T00:54:53.775Z,99.26
2019-01-27T00:55:53.767Z,98.87
2019-01-27T00:56:53.750Z,99.16
2019-01-27T00:57:53.742Z,98.97
2019-01-27T00:58:53.723Z,99.16
2019-01-27T00:59:53.715Z,99.26
2019-01-27T01:00:53.700Z,99.82
2019-01-27T01:01:53.684Z,99.26
2019-01-27T01:02:53.673Z,99.26
2019-01-27T01:03:53.655Z,99.06
2019-01-27T01:04:53.642Z,99.16
2019-01-27T01:05:53.627Z,98.97
2019-01-27T01:06:53.615Z,99.06
2019-01-27T01:07:53.602Z,98.97
2019-01-27T01:08:53.588Z,99.26
2019-01-27T01:09:53.574Z,98.97
2019-01-27T01:10:53.562Z,99.06
2019-01-27T01:11:53.549Z,99.16
2019-01-27T01:12:53.533Z,99.16
2019-01-27T01:13:53.520Z,99.16
2019-01-27T01:14:53.507Z,99.06
2019-01-27T01:15:53.492Z,99.06
2019-01-27T01:16:53.480Z,99.16
2019-01-27T01:17:53.475Z,99.73
2019-01-27T01:18:53.457Z,99.16
2019-01-27T01:19:53.441Z,99.82
2019-01-27T01:20:53.426Z,99.06
2019-01-27T01:21:53.412Z,99.06
2019-01-27T01:22:53.400Z,99.06
2019-01-27T01:23:53.398Z,99.16
2019-01-27T01:24:53.371Z,99.99
2019-01-27T01:25:53.365Z,99.26
2019-01-27T01:26:53.346Z,99.91
2019-01-27T01:27:53.330Z,99.91
2019-01-27T01:28:53.316Z,99.06
2019-01-27T01:29:53.304Z,99.16
2019-01-27T01:30:53.297Z,99.06
2019-01-27T01:31:53.277Z,99.06
2019-01-27T01:32:53.022Z,99.26
2019-01-27T01:33:53.253Z,99.16
2019-01-27T01:34:53.236Z,99.26
2019-01-27T01:35:53.225Z,99.63
2019-01-27T01:36:53.210Z,99.63
2019-01-27T01:37:53.195Z,99.73
2019-01-27T01:38:53.183Z,99.91
2019-01-27T01:39:53.175Z,99.82
2019-01-27T01:40:53.153Z,99.63
2019-01-27T01:41:53.142Z,99.91
2019-01-27T01:42:53.131Z,99.91
2019-01-27T01:43:53.114Z,99.54
2019-01-27T01:44:53.105Z,99.73
2019-01-27T01:45:53.088Z,99.73
2019-01-27T01:46:53.076Z,99.63
2019-01-27T01:47:53.064Z,99.63
2019-01-27T01:48:53.051Z,99.63
2019-01-27T01:49:53.033Z,99.82
2019-01-27T01:50:53.017Z,99.63
2019-01-27T01:51:53.008Z,99.44
2019-01-27T01:52:52.990Z,99.63
2019-01-27T01:53:52.977Z,99.73
2019-01-27T01:54:52.964Z,99.82
2019-01-27T01:55:52.950Z,99.44
2019-01-27T01:56:52.935Z,99.54
2019-01-27T01:57:52.922Z,99.82
2019-01-27T01:58:52.908Z,99.91
2019-01-27T01:59:52.895Z,99.91
2019-01-27T02:00:52.881Z,99.73
2019-01-27T02:01:52.867Z,99.54
2019-01-27T02:02:52.853Z,99.49
2019-01-27T02:03:52.839Z,99.58
2019-01-27T02:04:52.825Z,99.68
2019-01-27T02:05:52.814Z,99.44
2019-01-27T02:06:52.797Z,99.49
2019-01-27T02:07:52.781Z,99.44
2019-01-27T02:08:52.771Z,99.49
2019-01-27T02:09:52.755Z,99.96
2019-01-27T02:10:52.744Z,99.87
2019-01-27T02:11:52.732Z,99.58
2019-01-27T02:12:52.717Z,99.58
2019-01-27T02:13:52.699Z,99.77
2019-01-27T02:14:52.686Z,99.87
2019-01-27T02:15:52.674Z,99.77
2019-01-27T02:16:52.659Z,99.3
2019-01-27T02:17:52.646Z,99.99
2019-01-27T02:18:52.630Z,99.58
2019-01-27T02:19:52.616Z,99.58
2019-01-27T02:20:52.604Z,99.3
2019-01-27T02:21:52.593Z,99.58
2019-01-27T02:22:52.576Z,99.87
2019-01-27T02:23:52.563Z,99.49
2019-01-27T02:24:52.548Z,99.68
2019-01-27T02:25:52.534Z,99.77
2019-01-27T02:26:52.517Z,99.77
2019-01-27T02:27:52.504Z,99.68
2019-01-27T02:28:52.497Z,99.77
2019-01-27T02:29:52.478Z,99.68
2019-01-27T02:30:52.464Z,99.58
2019-01-27T02:31:52.452Z,99.58
2019-01-27T02:32:52.435Z,99.77
2019-01-27T02:33:52.420Z,99.77
2019-01-27T02:34:52.408Z,99.58
2019-01-27T02:35:52.396Z,99.96
2019-01-27T02:36:52.378Z,99.96
2019-01-27T02:37:52.366Z,99.87
2019-01-27T02:38:52.352Z,99.77
2019-01-27T02:39:52.342Z,99.68
2019-01-27T02:40:52.094Z,99.58
2019-01-27T02:41:52.309Z,99.99
2019-01-27T02:42:52.296Z,99.96
2019-01-27T02:43:52.280Z,99.96
2019-01-27T02:44:52.264Z,99.77
2019-01-27T02:45:52.265Z,99.87
2019-01-27T02:46:52.239Z,99.96
2019-01-27T02:47:52.228Z,99.99
2019-01-27T02:48:52.213Z,99.99
2019-01-27T02:49:52.200Z,99.99
2019-01-27T02:50:52.180Z,99.99
2019-01-27T02:51:52.169Z,99.77
2019-01-27T02:52:52.151Z,99.99
2019-01-27T02:53:52.148Z,99.96
2019-01-27T02:54:52.125Z,99.99
2019-01-27T02:55:52.110Z,99.99
2019-01-27T02:56:52.097Z,99.99
2019-01-27T02:57:52.081Z,99.77
2019-01-27T02:58:52.074Z,99.99
2019-01-27T02:59:52.849Z,99.99
2019-01-27T03:00:52.042Z,99.99
2019-01-27T03:01:52.027Z,99.99
2019-01-27T03:02:52.033Z,99.99
2019-01-27T03:03:51.996Z,99.99
2019-01-27T03:04:51.982Z,99.99
2019-01-27T03:05:51.970Z,99.99
2019-01-27T03:06:51.954Z,99.99
2019-01-27T03:07:51.940Z,99.99
2019-01-27T03:08:51.934Z,99.77
2019-01-27T03:09:51.912Z,99.87
2019-01-27T03:10:51.900Z,99.96
2019-01-27T03:11:51.888Z,99.96
2019-01-27T03:12:51.870Z,99.99
2019-01-27T03:13:51.853Z,99.77
2019-01-27T03:14:51.839Z,99.99
2019-01-27T03:15:51.828Z,99.99
2019-01-27T03:16:51.814Z,99.99
2019-01-27T03:17:51.798Z,99.99
2019-01-27T03:18:51.784Z,99.99
2019-01-27T03:19:51.770Z,99.99
2019-01-27T03:20:51.762Z,99.99
2019-01-27T03:21:51.741Z,99.99
2019-01-27T03:22:51.727Z,99.77
2019-01-27T03:23:51.715Z,99.87
2019-01-27T03:24:51.706Z,99.99
2019-01-27T03:25:51.691Z,99.99
2019-01-27T03:26:51.668Z,99.99
2019-01-27T03:27:51.654Z,99.99
2019-01-27T03:28:51.641Z,99.99
2019-01-27T03:29:51.417Z,99.99
2019-01-27T03:30:51.619Z,99.96
2019-01-27T03:31:51.601Z,99.99
2019-01-27T03:32:51.591Z,99.99
2019-01-27T03:33:51.572Z,99.99
2019-01-27T03:34:51.555Z,99.99
2019-01-27T03:35:51.540Z,99.99
2019-01-27T03:36:51.529Z,99.99
2019-01-27T03:37:51.511Z,99.99
2019-01-27T03:38:51.496Z,99.99
2019-01-27T03:39:51.483Z,99.99
2019-01-27T03:40:51.471Z,99.99
2019-01-27T03:41:51.456Z,99.99
2019-01-27T03:42:51.440Z,99.99
2019-01-27T03:43:51.427Z,99.99
2019-01-27T03:44:51.471Z,99.99
2019-01-27T03:45:51.400Z,99.99
2019-01-27T03:46:51.390Z,99.99
2019-01-27T03:47:51.373Z,99.87
2019-01-27T03:48:51.359Z,99.99
2019-01-27T03:49:51.340Z,99.96
2019-01-27T03:50:51.329Z,99.87
2019-01-27T03:51:51.321Z,99.99
2019-01-27T03:52:51.300Z,99.96
2019-01-27T03:53:51.283Z,99.99
2019-01-27T03:54:51.274Z,99.96
2019-01-27T03:55:51.259Z,99.87
2019-01-27T03:56:51.242Z,99.99
2019-01-27T03:57:51.226Z,99.87
2019-01-27T03:58:51.216Z,99.99
2019-01-27T03:59:51.199Z,99.87
2019-01-27T04:00:51.182Z,99.99
2019-01-27T04:01:51.179Z,99.99
2019-01-27T04:02:51.157Z,99.99
2019-01-27T04:03:51.151Z,99.99
2019-01-27T04:04:51.160Z,99.99
2019-01-27T04:05:51.116Z,99.99
2019-01-27T04:06:51.102Z,99.96
2019-01-27T04:07:51.087Z,99.99
2019-01-27T04:08:51.071Z,99.99
2019-01-27T04:09:51.059Z,99.99
2019-01-27T04:10:51.042Z,99.99
2019-01-27T04:11:51.026Z,99.87
2019-01-27T04:12:51.013Z,99.99
2019-01-27T04:13:50.999Z,99.99
2019-01-27T04:14:50.990Z,99.99
2019-01-27T04:15:50.971Z,99.99
2019-01-27T04:16:50.957Z,99.96
2019-01-27T04:17:50.942Z,99.99
2019-01-27T04:18:50.927Z,99.96
2019-01-27T04:19:50.913Z,99.99
2019-01-27T04:20:50.899Z,99.99
2019-01-27T04:21:50.888Z,99.77
2019-01-27T04:22:50.918Z,99.99
2019-01-27T04:23:50.859Z,99.99
2019-01-27T04:24:50.844Z,99.96
2019-01-27T04:25:50.839Z,99.99
2019-01-27T04:26:50.812Z,99.99
2019-01-27T04:27:50.799Z,99.99
2019-01-27T04:28:50.784Z,99.99
2019-01-27T04:29:50.771Z,99.99
2019-01-27T04:30:50.757Z,99.99
2019-01-27T04:31:50.501Z,99.99
2019-01-27T04:32:50.734Z,99.99
2019-01-27T04:33:50.717Z,99.91
2019-01-27T04:34:50.699Z,99.99
2019-01-27T04:35:50.684Z,99.99
2019-01-27T04:36:50.674Z,99.99
2019-01-27T04:37:50.654Z,99.91
2019-01-27T04:38:50.639Z,99.99
2019-01-27T04:39:50.643Z,99.99
2019-01-27T04:40:50.614Z,99.91
2019-01-27T04:41:50.596Z,99.99
2019-01-27T04:42:50.589Z,99.99
2019-01-27T04:43:50.567Z,99.91
2019-01-27T04:44:50.552Z,99.99
2019-01-27T04:45:50.540Z,99.99
2019-01-27T04:46:50.538Z,99.99
2019-01-27T04:47:50.278Z,99.99
2019-01-27T04:48:50.497Z,99.99
2019-01-27T04:49:50.482Z,99.82
2019-01-27T04:50:50.469Z,99.99
2019-01-27T04:51:50.455Z,99.99
2019-01-27T04:52:50.470Z,99.99
2019-01-27T04:53:50.424Z,99.99
2019-01-27T04:54:50.416Z,99.99
2019-01-27T04:55:50.404Z,99.96
2019-01-27T04:56:50.387Z,99.99
2019-01-27T04:57:50.377Z,99.96
2019-01-27T04:58:50.352Z,99.77
2019-01-27T04:59:50.337Z,99.99
2019-01-27T05:00:50.331Z,99.99
2019-01-27T05:01:50.311Z,99.99
2019-01-27T05:02:50.294Z,99.99
2019-01-27T05:03:50.282Z,99.99
2019-01-27T05:04:50.266Z,99.99
2019-01-27T05:05:50.252Z,99.99
2019-01-27T05:06:50.239Z,99.99
2019-01-27T05:07:50.225Z,99.96
2019-01-27T05:08:50.209Z,99.99
2019-01-27T05:09:50.196Z,99.87
2019-01-27T05:10:50.182Z,99.99
2019-01-27T05:11:50.168Z,99.96
2019-01-27T05:12:50.151Z,99.99
2019-01-27T05:13:50.140Z,99.99
2019-01-27T05:14:50.126Z,99.99
2019-01-27T05:15:50.114Z,99.99
2019-01-27T05:16:50.094Z,99.99
2019-01-27T05:17:50.080Z,99.87
2019-01-27T05:18:50.066Z,99.96
2019-01-27T05:19:50.056Z,99.99
2019-01-27T05:20:50.039Z,99.99
2019-01-27T05:21:50.025Z,99.99
2019-01-27T05:22:50.009Z,99.99
2019-01-27T05:23:49.997Z,99.96
2019-01-27T05:24:49.983Z,99.99
2019-01-27T05:25:49.966Z,99.99
2019-01-27T05:26:49.952Z,99.87
2019-01-27T05:27:49.766Z,99.99
2019-01-27T05:28:49.921Z,99.96
2019-01-27T05:29:49.908Z,99.99
2019-01-27T05:30:49.894Z,99.99
2019-01-27T05:31:49.889Z,99.99
2019-01-27T05:32:49.867Z,99.99
2019-01-27T05:33:49.851Z,99.99
2019-01-27T05:34:49.845Z,99.99
2019-01-27T05:35:49.824Z,99.96
2019-01-27T05:36:49.815Z,99.99
2019-01-27T05:37:49.793Z,99.99
2019-01-27T05:38:49.785Z,99.99
2019-01-27T05:39:49.771Z,99.99
2019-01-27T05:40:49.750Z,99.99
2019-01-27T05:41:49.738Z,99.99
2019-01-27T05:42:49.737Z,99.99
2019-01-27T05:43:49.709Z,99.99
2019-01-27T05:44:49.694Z,99.99
2019-01-27T05:45:49.679Z,99.99
2019-01-27T05:46:49.667Z,99.99
2019-01-27T05:47:49.656Z,99.99
2019-01-27T05:48:49.639Z,99.99
2019-01-27T05:49:49.631Z,99.99
2019-01-27T05:50:49.606Z,99.99
2019-01-27T05:51:49.602Z,99.99
2019-01-27T05:52:49.583Z,99.99
2019-01-27T05:53:49.563Z,99.99
2019-01-27T05:54:49.547Z,99.99
2019-01-27T05:55:49.533Z,99.99
2019-01-27T05:56:56.237Z,99.99
2019-01-27T05:57:49.510Z,99.99
2019-01-27T05:58:49.494Z,99.99
2019-01-27T05:59:49.245Z,99.99
2019-01-27T06:00:49.461Z,99.99
2019-01-27T06:01:49.449Z,99.99
2019-01-27T06:02:49.436Z,99.99
2019-01-27T06:03:49.419Z,99.99
2019-01-27T06:04:49.406Z,99.99
2019-01-27T06:05:49.389Z,99.99
2019-01-27T06:06:49.375Z,99.99
2019-01-27T06:07:49.363Z,99.99
2019-01-27T06:08:49.344Z,99.99
2019-01-27T06:09:49.333Z,99.99
2019-01-27T06:10:49.318Z,99.99
2019-01-27T06:11:49.309Z,99.99
2019-01-27T06:12:49.295Z,99.99
2019-01-27T06:13:49.276Z,99.99
2019-01-27T06:14:49.258Z,99.99
2019-01-27T06:15:49.250Z,99.99
2019-01-27T06:16:49.234Z,99.99
2019-01-27T06:17:49.215Z,99.72
2019-01-27T06:18:49.213Z,99.99
2019-01-27T06:19:49.185Z,99.82
2019-01-27T06:20:49.177Z,99.82
2019-01-27T06:21:49.156Z,99.99
2019-01-27T06:22:49.163Z,99.99
2019-01-27T06:23:49.127Z,99.99
2019-01-27T06:24:49.115Z,99.99
2019-01-27T06:25:49.139Z,99.99
2019-01-27T06:26:49.085Z,99.99
2019-01-27T06:27:49.083Z,99.99
2019-01-27T06:28:49.055Z,99.99
2019-01-27T06:29:49.044Z,99.99
2019-01-27T06:30:49.029Z,99.99
2019-01-27T06:31:49.013Z,99.99
2019-01-27T06:32:49.065Z,99.99
2019-01-27T06:33:48.983Z,99.99
2019-01-27T06:34:48.967Z,99.99
2019-01-27T06:35:48.953Z,99.99
2019-01-27T06:36:48.939Z,99.99
2019-01-27T06:37:48.925Z,99.99
2019-01-27T06:38:48.912Z,99.99
2019-01-27T06:39:48.898Z,99.99
2019-01-27T06:40:48.884Z,99.99
2019-01-27T06:41:48.866Z,99.99
2019-01-27T06:42:48.852Z,99.99
2019-01-27T06:43:48.837Z,99.99
2019-01-27T06:44:48.826Z,99.99
2019-01-27T06:45:48.809Z,99.99
2019-01-27T06:46:48.795Z,99.99
2019-01-27T06:47:48.781Z,99.99
2019-01-27T06:48:48.763Z,99.99
2019-01-27T06:49:48.751Z,99.99
2019-01-27T06:50:48.737Z,99.99
2019-01-27T06:51:48.722Z,99.99
2019-01-27T06:52:48.709Z,99.99
2019-01-27T06:53:48.695Z,99.99
2019-01-27T06:54:48.679Z,99.99
2019-01-27T06:55:48.667Z,99.99
2019-01-27T06:56:48.648Z,99.99
2019-01-27T06:57:48.642Z,99.99
2019-01-27T06:58:48.622Z,99.99
2019-01-27T06:59:48.609Z,99.99
2019-01-27T07:00:48.595Z,99.99
2019-01-27T07:01:48.580Z,99.99
2019-01-27T07:02:48.565Z,99.99
2019-01-27T07:03:48.550Z,99.99
2019-01-27T07:04:48.535Z,99.99
2019-01-27T07:05:48.521Z,99.99
2019-01-27T07:06:48.506Z,99.96
2019-01-27T07:07:48.491Z,99.99
2019-01-27T07:08:48.481Z,99.99
2019-01-27T07:09:48.464Z,99.99
2019-01-27T07:10:48.447Z,99.99
2019-01-27T07:11:48.436Z,99.99
2019-01-27T07:12:48.420Z,99.99
2019-01-27T07:13:48.406Z,99.99
2019-01-27T07:14:48.390Z,99.99
2019-01-27T07:15:48.377Z,99.99
2019-01-27T07:16:48.361Z,99.99
2019-01-27T07:17:48.351Z,99.99
2019-01-27T07:18:48.332Z,99.99
2019-01-27T07:19:48.318Z,99.99
2019-01-27T07:20:48.305Z,99.99
2019-01-27T07:21:48.294Z,99.99
2019-01-27T07:22:48.275Z,99.99
2019-01-27T07:23:48.262Z,99.99
2019-01-27T07:24:48.248Z,99.99
2019-01-27T07:25:48.231Z,99.99
2019-01-27T07:26:48.219Z,99.99
2019-01-27T07:27:48.205Z,99.99
2019-01-27T07:28:48.190Z,99.99
2019-01-27T07:29:48.177Z,99.96
2019-01-27T07:30:48.161Z,99.99
2019-01-27T07:31:48.149Z,99.99
2019-01-27T07:32:48.131Z,99.68
2019-01-27T07:33:48.120Z,99.58
2019-01-27T07:34:49.317Z,99.99
2019-01-27T07:35:48.091Z,99.99
2019-01-27T07:36:48.088Z,99.99
2019-01-27T07:37:47.819Z,99.68
2019-01-27T07:38:48.047Z,99.87
2019-01-27T07:39:48.032Z,99.99
2019-01-27T07:40:48.018Z,99.77
2019-01-27T07:41:48.007Z,99.96
2019-01-27T07:42:47.991Z,99.99
2019-01-27T07:43:47.975Z,99.96
2019-01-27T07:44:47.961Z,99.77
2019-01-27T07:45:47.953Z,99.87
2019-01-27T07:46:47.938Z,99.99
2019-01-27T07:47:47.917Z,99.99
2019-01-27T07:48:47.913Z,99.77
2019-01-27T07:49:47.892Z,99.77
2019-01-27T07:50:47.891Z,99.99
2019-01-27T07:51:47.861Z,99.77
2019-01-27T07:52:47.848Z,99.87
2019-01-27T07:53:47.836Z,99.77
2019-01-27T07:54:47.819Z,99.87
2019-01-27T07:55:47.810Z,99.77
2019-01-27T07:56:47.794Z,99.68
2019-01-27T07:57:47.778Z,99.87
2019-01-27T07:58:47.764Z,99.87
2019-01-27T07:59:47.750Z,99.99
2019-01-27T08:00:47.737Z,99.96
2019-01-27T08:01:47.725Z,99.99
2019-01-27T08:02:47.708Z,99.73
2019-01-27T08:03:47.700Z,99.82
2019-01-27T08:04:47.682Z,99.99
2019-01-27T08:05:47.668Z,99.99
2019-01-27T08:06:47.656Z,99.63
2019-01-27T08:07:47.643Z,99.82
2019-01-27T08:08:47.627Z,99.63
2019-01-27T08:09:47.614Z,99.82
2019-01-27T08:10:47.600Z,99.73
2019-01-27T08:11:47.586Z,99.82
2019-01-27T08:12:47.572Z,99.63
2019-01-27T08:13:47.564Z,99.16
2019-01-27T08:14:47.547Z,99.35
2019-01-27T08:15:47.532Z,99.35
2019-01-27T08:16:47.519Z,99.26
2019-01-27T08:17:47.506Z,99.35
2019-01-27T08:18:47.494Z,99.54
2019-01-27T08:19:47.481Z,99.54
2019-01-27T08:20:47.464Z,99.26
2019-01-27T08:21:47.457Z,98.78
2019-01-27T08:22:47.461Z,99.73
2019-01-27T08:23:47.424Z,99.63
2019-01-27T08:24:47.415Z,99.54
2019-01-27T08:25:47.401Z,99.82
2019-01-27T08:26:47.388Z,99.91
2019-01-27T08:27:47.372Z,99.63
2019-01-27T08:28:47.360Z,99.54
2019-01-27T08:29:47.345Z,99.26
2019-01-27T08:30:47.334Z,99.91
2019-01-27T08:31:47.318Z,99.73
2019-01-27T08:32:47.305Z,99.26
2019-01-27T08:33:47.297Z,99.44
2019-01-27T08:34:47.279Z,99.44
2019-01-27T08:35:47.266Z,99.35
2019-01-27T08:36:47.253Z,99.99
2019-01-27T08:37:47.010Z,99.99
2019-01-27T08:38:47.228Z,99.35
2019-01-27T08:39:47.215Z,99.26
2019-01-27T08:40:47.206Z,99.44
2019-01-27T08:41:47.189Z,99.21
2019-01-27T08:42:47.178Z,99.49
2019-01-27T08:43:47.161Z,99.3
2019-01-27T08:44:47.151Z,99.58
2019-01-27T08:45:47.134Z,99.4
2019-01-27T08:46:47.122Z,99.21
2019-01-27T08:47:47.107Z,99.11
2019-01-27T08:48:47.095Z,98.83
2019-01-27T08:49:47.084Z,99.11
2019-01-27T08:50:47.070Z,99.21
2019-01-27T08:51:47.064Z,99.21
2019-01-27T08:52:47.045Z,99.4
2019-01-27T08:53:47.027Z,99.21
2019-01-27T08:54:47.015Z,99.3
2019-01-27T08:55:47.002Z,98.92
2019-01-27T08:56:46.994Z,99.11
2019-01-27T08:57:46.978Z,98.92
2019-01-27T08:58:46.980Z,98.92
2019-01-27T08:59:46.953Z,98.73
2019-01-27T09:00:46.939Z,98.64
2019-01-27T09:01:46.926Z,99.02
2019-01-27T09:02:46.913Z,98.92
2019-01-27T09:03:46.901Z,99.02
2019-01-27T09:04:46.886Z,98.83
2019-01-27T09:05:46.876Z,98.64
2019-01-27T09:06:46.866Z,98.73
2019-01-27T09:07:46.850Z,98.92
2019-01-27T09:08:46.835Z,98.54
2019-01-27T09:09:46.828Z,98.73
2019-01-27T09:10:46.813Z,98.73
2019-01-27T09:11:46.797Z,99.02
2019-01-27T09:12:46.786Z,99.21
2019-01-27T09:13:46.772Z,99.49
2019-01-27T09:14:46.764Z,99.44
2019-01-27T09:15:46.745Z,99.07
2019-01-27T09:16:46.733Z,99.54
2019-01-27T09:17:46.723Z,99.3
2019-01-27T09:18:46.752Z,99.07
2019-01-27T09:19:46.695Z,98.97
2019-01-27T09:20:46.687Z,99.4
2019-01-27T09:21:46.673Z,98.97
2019-01-27T09:22:46.662Z,98.83
2019-01-27T09:23:46.649Z,99.87
2019-01-27T09:24:46.642Z,99.97
2019-01-27T09:25:46.621Z,99.54
2019-01-27T09:26:46.612Z,99.54
2019-01-27T09:27:46.597Z,98.97
2019-01-27T09:28:46.583Z,99.26
2019-01-27T09:29:46.572Z,98.97
2019-01-27T09:30:46.560Z,99.44
2019-01-27T09:31:46.547Z,99.26
2019-01-27T09:32:46.537Z,98.97
2019-01-27T09:33:46.522Z,98.59
2019-01-27T09:34:46.510Z,98.97
2019-01-27T09:35:46.500Z,99.07
2019-01-27T09:36:46.487Z,98.88
2019-01-27T09:37:46.475Z,98.69
2019-01-27T09:38:46.461Z,98.79
2019-01-27T09:39:46.453Z,99.07
2019-01-27T09:40:46.437Z,98.4
2019-01-27T09:41:46.425Z,98.59
2019-01-27T09:42:46.416Z,97.83
2019-01-27T09:43:46.405Z,98.17
2019-01-27T09:44:46.391Z,98.45
2019-01-27T09:45:57.510Z,98.55
2019-01-27T09:46:46.367Z,97.88
2019-01-27T09:47:46.356Z,97.88
2019-01-27T09:48:46.343Z,98.07
2019-01-27T09:49:46.333Z,97.97
2019-01-27T09:50:46.320Z,97.88
2019-01-27T09:51:46.308Z,97.97
2019-01-27T09:52:46.297Z,98.07
2019-01-27T09:53:46.286Z,98.07
2019-01-27T09:54:46.275Z,97.97
2019-01-27T09:55:46.500Z,98.17
2019-01-27T09:56:46.251Z,98.36
2019-01-27T09:57:46.239Z,98.45
2019-01-27T09:58:46.234Z,98.36
2019-01-27T09:59:46.217Z,98.17
2019-01-27T10:00:46.205Z,97.78
2019-01-27T10:01:46.197Z,98.36
2019-01-27T10:02:46.181Z,97.88
2019-01-27T10:03:46.169Z,97.69
2019-01-27T10:04:46.160Z,97.69
2019-01-27T10:05:46.147Z,98.07
2019-01-27T10:06:46.146Z,98.26
2019-01-27T10:07:46.124Z,98.17
2019-01-27T10:08:46.115Z,98.03
2019-01-27T10:09:46.105Z,97.93
2019-01-27T10:10:46.092Z,98.31
2019-01-27T10:11:46.084Z,97.93
2019-01-27T10:12:46.071Z,97.17
2019-01-27T10:13:46.060Z,97.27
2019-01-27T10:14:46.046Z,97.08
2019-01-27T10:15:46.037Z,97.17
2019-01-27T10:16:46.027Z,97.17
2019-01-27T10:17:46.014Z,96.98
2019-01-27T10:18:45.772Z,97.27
2019-01-27T10:19:45.992Z,97.17
2019-01-27T10:20:45.983Z,97.36
2019-01-27T10:21:45.971Z,97.55
2019-01-27T10:22:45.959Z,97.83
2019-01-27T10:23:45.946Z,98.12
2019-01-27T10:24:45.938Z,98.12
2019-01-27T10:25:45.927Z,97.93
2019-01-27T10:26:45.915Z,96.69
2019-01-27T10:27:45.907Z,96.89
2019-01-27T10:28:45.895Z,96.89
2019-01-27T10:29:45.890Z,96.79
2019-01-27T10:30:45.872Z,96.98
2019-01-27T10:31:45.860Z,96.89
2019-01-27T10:32:45.854Z,97.08
2019-01-27T10:33:45.840Z,96.79
2019-01-27T10:34:45.828Z,97.55
2019-01-27T10:35:45.817Z,97.74
2019-01-27T10:36:45.805Z,97.64
2019-01-27T10:37:45.798Z,97.93
2019-01-27T10:38:45.790Z,97.93
2019-01-27T10:39:45.774Z,97.74
2019-01-27T10:40:45.764Z,98.12
2019-01-27T10:41:45.751Z,97.36
2019-01-27T10:42:45.741Z,97.27
2019-01-27T10:43:45.728Z,97.64
2019-01-27T10:44:45.718Z,98.12
2019-01-27T10:45:45.708Z,97.83
2019-01-27T10:46:45.697Z,97.93
2019-01-27T10:47:46.855Z,97.74
2019-01-27T10:48:45.676Z,98.31
2019-01-27T10:49:45.668Z,97.74
2019-01-27T10:50:45.654Z,98.08
2019-01-27T10:51:45.644Z,98.27
2019-01-27T10:52:45.636Z,97.74
2019-01-27T10:53:45.626Z,97.74
2019-01-27T10:54:45.612Z,98.08
2019-01-27T10:55:45.601Z,97.93
2019-01-27T10:56:45.588Z,98.41
2019-01-27T10:57:45.586Z,97.83
2019-01-27T10:58:45.568Z,98.03
2019-01-27T10:59:45.558Z,97.98
2019-01-27T11:00:45.547Z,97.55
2019-01-27T11:01:45.535Z,98.41
2019-01-27T11:02:45.523Z,98.5
2019-01-27T11:03:45.513Z,98.31
2019-01-27T11:04:45.503Z,98.31
2019-01-27T11:05:45.491Z,98.6
2019-01-27T11:06:45.490Z,98.41
2019-01-27T11:07:45.468Z,98.69
2019-01-27T11:08:45.464Z,98.5
2019-01-27T11:09:45.447Z,98.41
2019-01-27T11:10:45.437Z,98.12
2019-01-27T11:11:45.432Z,97.55
2019-01-27T11:12:45.415Z,97.55
2019-01-27T11:13:45.406Z,97.93
2019-01-27T11:14:45.394Z,98.22
2019-01-27T11:15:45.385Z,98.22
2019-01-27T11:16:45.373Z,98.69
2019-01-27T11:17:45.369Z,99.26
2019-01-27T11:18:45.352Z,99.26
2019-01-27T11:19:45.336Z,98.79
2019-01-27T11:20:45.485Z,99.26
2019-01-27T11:21:45.319Z,99.55
2019-01-27T11:22:45.304Z,99.26
2019-01-27T11:23:45.295Z,99.64
2019-01-27T11:24:45.280Z,98.79
2019-01-27T11:25:45.269Z,98.69
2019-01-27T11:26:45.016Z,98.41
2019-01-27T11:27:45.249Z,99.36
2019-01-27T11:28:45.237Z,99.26
2019-01-27T11:29:45.228Z,99.74
2019-01-27T11:30:45.213Z,99.74
2019-01-27T11:31:45.207Z,99.45
2019-01-27T11:32:45.192Z,99.45
2019-01-27T11:33:45.180Z,99.45
2019-01-27T11:34:45.169Z,99.99
2019-01-27T11:35:45.160Z,99.64
2019-01-27T11:36:45.197Z,99.26
2019-01-27T11:37:45.134Z,99.36
2019-01-27T11:38:45.128Z,99.07
2019-01-27T11:39:45.119Z,99.36
2019-01-27T11:40:45.103Z,98.74
2019-01-27T11:41:45.096Z,98.6
2019-01-27T11:42:45.081Z,98.46
2019-01-27T11:43:45.068Z,99.41
2019-01-27T11:44:45.059Z,98.65
2019-01-27T11:45:45.048Z,98.55
2019-01-27T11:46:45.035Z,98.17
2019-01-27T11:47:45.026Z,98.46
2019-01-27T11:48:45.017Z,98.65
2019-01-27T11:49:45.003Z,98.65
2019-01-27T11:50:44.994Z,98.27
2019-01-27T11:51:44.983Z,97.98
2019-01-27T11:52:44.970Z,98.17
2019-01-27T11:53:44.959Z,98.83
2019-01-27T11:54:44.949Z,98.83
2019-01-27T11:55:44.938Z,98.65
2019-01-27T11:56:44.931Z,97.98
2019-01-27T11:57:44.925Z,98.55
2019-01-27T11:58:44.907Z,98.27
2019-01-27T11:59:44.896Z,98.55
2019-01-27T12:00:44.885Z,98.55
2019-01-27T12:01:44.876Z,98.55
2019-01-27T12:02:49.103Z,98.17
2019-01-27T12:03:44.852Z,98.27
2019-01-27T12:04:44.841Z,98.46
2019-01-27T12:05:44.831Z,98.83
2019-01-27T12:06:44.821Z,98.36
2019-01-27T12:07:44.838Z,98.74
2019-01-27T12:08:44.802Z,98.74
2019-01-27T12:09:44.792Z,98.36
2019-01-27T12:10:44.779Z,97.88
2019-01-27T12:11:44.767Z,97.31
2019-01-27T12:12:44.757Z,97.88
2019-01-27T12:13:44.745Z,98.08
2019-01-27T12:14:44.734Z,97.88
2019-01-27T12:15:44.724Z,98.08
2019-01-27T12:16:44.713Z,97.98
2019-01-27T12:17:44.701Z,98.36
2019-01-27T12:18:44.693Z,98.55
2019-01-27T12:19:44.684Z,98.74
2019-01-27T12:20:44.670Z,98.55
2019-01-27T12:21:44.661Z,98.36
2019-01-27T12:22:44.647Z,97.84
2019-01-27T12:23:44.639Z,98.08
2019-01-27T12:24:44.627Z,97.74
2019-01-27T12:25:44.617Z,97.65
2019-01-27T12:26:44.608Z,97.17
2019-01-27T12:27:44.596Z,96.98
2019-01-27T12:28:44.589Z,97.27
2019-01-27T12:29:44.574Z,96.89
2019-01-27T12:30:44.565Z,97.03
2019-01-27T12:31:44.597Z,97.17
2019-01-27T12:32:44.548Z,96.89
2019-01-27T12:33:44.533Z,97.27
2019-01-27T12:34:44.526Z,96.51
2019-01-27T12:35:44.513Z,96.98
2019-01-27T12:36:44.503Z,97.03
2019-01-27T12:37:44.491Z,97.27
2019-01-27T12:38:44.483Z,97.41
2019-01-27T12:39:44.522Z,97.03
2019-01-27T12:40:44.463Z,97.22
2019-01-27T12:41:44.816Z,97.6
2019-01-27T12:42:44.497Z,97.79
2019-01-27T12:43:44.433Z,97.88
2019-01-27T12:44:44.421Z,97.41
2019-01-27T12:45:45.970Z,96.74
2019-01-27T12:46:44.400Z,97.41
2019-01-27T12:47:44.393Z,97.13
2019-01-27T12:48:44.382Z,97.79
2019-01-27T12:49:44.369Z,98.17
2019-01-27T12:50:44.357Z,98.27
2019-01-27T12:51:44.784Z,98.17
2019-01-27T12:52:44.340Z,98.08
2019-01-27T12:53:44.327Z,97.79